Time;durP1;ratioP1;P1;durP2;ratioP2;P2;SDS_P1;SDS_P2;PMS_P1;PMS_P2;Temp;Humidity;BMP_temperature;BMP_pressure;BME280_temperature;BME280_humidity;BME280_pressure;Samples;Min_cycle;Max_cycle;Signal;HPM_P1;HPM_P2
2022/01/03 00:00:46;;;;;;;;;;;11.10;83.20;;;;;;5012149;28;23088;-86
2022/01/03 00:03:12;;;;;;;;;;;11.00;83.10;;;;;;5013354;28;19909;-86
2022/01/03 00:05:38;;;;;;;;;;;11.10;82.80;;;;;;5013318;28;19916;-86
2022/01/03 00:08:04;;;;;;;;;;;11.10;83.30;;;;;;5017465;28;20298;-87
2022/01/03 00:10:30;;;;;;;;;;;11.10;82.90;;;;;;5014815;28;19909;-87
2022/01/03 00:12:55;;;;;;;;;;;11.10;83.30;;;;;;5009808;28;19937;-86
2022/01/03 00:15:21;;;;;;;;;;;11.10;83.10;;;;;;5001831;28;19917;-87
2022/01/03 00:17:48;;;;;;;;;;;11.00;83.00;;;;;;4993170;28;19977;-86
2022/01/03 00:20:13;;;;;;;;;;;11.00;83.10;;;;;;4995597;28;19925;-87
2022/01/03 00:22:49;;;;;;;;;;;11.00;83.00;;;;;;4996303;28;20020;-86
2022/01/03 00:25:16;;;;;;;;;;;11.00;82.90;;;;;;5010558;28;19910;-87
2022/01/03 00:27:41;;;;;;;;;;;11.00;83.20;;;;;;5015169;28;19921;-87
2022/01/03 00:30:07;;;;;;;;;;;10.90;83.10;;;;;;5026558;28;19968;-85
2022/01/03 00:32:36;;;;;;;;;;;10.80;83.50;;;;;;5031682;28;19897;-85
2022/01/03 00:35:02;;;;;;;;;;;10.90;83.30;;;;;;5031216;28;19898;-86
2022/01/03 00:37:28;;;;;;;;;;;10.90;82.90;;;;;;5016809;28;19909;-85
2022/01/03 00:39:57;;;;;;;;;;;10.90;82.60;;;;;;5013131;28;19917;-86
2022/01/03 00:42:22;;;;;;;;;;;10.90;82.60;;;;;;5010738;28;19915;-87
2022/01/03 00:44:48;;;;;;;;;;;10.80;82.90;;;;;;5008880;28;19917;-87
2022/01/03 00:47:14;;;;;;;;;;;10.80;82.30;;;;;;5005920;28;19914;-87
2022/01/03 00:49:40;;;;;;;;;;;10.80;82.50;;;;;;5015654;28;19914;-85
2022/01/03 00:52:05;;;;;;;;;;;10.80;82.50;;;;;;5010254;28;19910;-86
2022/01/03 00:54:31;;;;;;;;;;;10.80;82.70;;;;;;5009807;28;19910;-85
2022/01/03 00:57:01;;;;;;;;;;;10.80;82.80;;;;;;5016068;28;19925;-87
2022/01/03 00:59:32;;;;;;;;;;;10.80;82.90;;;;;;5014825;28;19913;-86
2022/01/03 01:01:58;;;;;;;;;;;10.90;82.90;;;;;;5015285;28;19983;-87
2022/01/03 01:04:24;;;;;;;;;;;10.70;83.10;;;;;;5015017;28;19910;-86
2022/01/03 01:06:53;;;;;;;;;;;10.80;83.10;;;;;;5014383;28;19923;-87
2022/01/03 01:09:20;;;;;;;;;;;10.80;83.20;;;;;;5016427;28;20019;-86
2022/01/03 01:11:45;;;;;;;;;;;10.80;83.30;;;;;;5014397;28;19913;-86
2022/01/03 01:14:12;;;;;;;;;;;10.80;83.00;;;;;;5011722;28;19924;-86
2022/01/03 01:16:38;;;;;;;;;;;10.80;82.90;;;;;;5008668;28;19913;-86
2022/01/03 01:19:04;;;;;;;;;;;10.80;82.80;;;;;;5015399;28;20299;-85
2022/01/03 01:21:30;;;;;;;;;;;10.70;82.50;;;;;;5011144;28;19914;-87
2022/01/03 01:23:57;;;;;;;;;;;10.70;82.80;;;;;;4998051;28;19910;-86
2022/01/03 01:29:07;;;;;;;;;;;10.70;84.10;;;;;;5014476;28;20041;-87
2022/01/03 01:31:34;;;;;;;;;;;10.70;85.10;;;;;;5013985;28;20325;-86
2022/01/03 01:34:01;;;;;;;;;;;10.60;85.00;;;;;;5015134;28;19909;-85
2022/01/03 01:36:28;;;;;;;;;;;10.50;85.40;;;;;;5013809;28;20004;-86
2022/01/03 01:38:55;;;;;;;;;;;10.50;85.20;;;;;;5012919;28;20000;-86
2022/01/03 01:41:22;;;;;;;;;;;10.50;85.30;;;;;;5009358;28;19910;-86
2022/01/03 01:43:48;;;;;;;;;;;10.40;85.40;;;;;;4994126;28;19915;-86
2022/01/03 01:46:15;;;;;;;;;;;10.50;84.90;;;;;;5002685;28;20362;-85
2022/01/03 01:48:43;;;;;;;;;;;10.50;84.90;;;;;;5012205;28;19920;-85
2022/01/03 01:51:10;;;;;;;;;;;10.50;84.50;;;;;;5013162;28;20254;-87
2022/01/03 01:53:40;;;;;;;;;;;10.50;84.20;;;;;;5013230;28;19992;-85
2022/01/03 01:56:09;;;;;;;;;;;10.50;84.40;;;;;;5009882;28;20394;-86
2022/01/03 01:58:39;;;;;;;;;;;10.50;83.90;;;;;;4993699;28;19953;-86
2022/01/03 02:01:07;;;;;;;;;;;10.60;83.70;;;;;;5007489;28;20007;-86
2022/01/03 02:03:51;;;;;;;;;;;10.50;83.30;;;;;;5013862;28;19916;-86
2022/01/03 02:06:27;;;;;;;;;;;10.60;83.10;;;;;;5028029;28;19929;-86
2022/01/03 02:09:03;;;;;;;;;;;10.60;82.90;;;;;;5013796;28;19937;-86
2022/01/03 02:11:48;;;;;;;;;;;10.50;82.90;;;;;;5016443;28;19910;-85
2022/01/03 02:14:14;;;;;;;;;;;10.60;82.80;;;;;;5040177;28;19995;-85
2022/01/03 02:16:39;;;;;;;;;;;10.60;82.60;;;;;;5017376;28;19963;-86
2022/01/03 02:19:05;;;;;;;;;;;10.60;82.40;;;;;;5013040;28;19921;-87
2022/01/03 02:21:31;;;;;;;;;;;10.60;81.80;;;;;;4996064;28;19910;-87
2022/01/03 02:23:56;;;;;;;;;;;10.60;82.10;;;;;;5006191;28;19913;-85
2022/01/03 02:26:22;;;;;;;;;;;10.70;81.70;;;;;;5007434;28;19909;-86
2022/01/03 02:28:47;;;;;;;;;;;10.60;81.30;;;;;;5019932;28;19897;-86
2022/01/03 02:31:17;;;;;;;;;;;10.70;81.40;;;;;;5017259;28;19914;-86
2022/01/03 02:33:43;;;;;;;;;;;10.60;81.70;;;;;;4998016;28;20338;-87
2022/01/03 02:36:09;;;;;;;;;;;10.60;81.50;;;;;;4997984;28;19921;-86
2022/01/03 02:38:34;;;;;;;;;;;10.60;81.50;;;;;;4997690;28;19910;-87
2022/01/03 02:41:00;;;;;;;;;;;10.60;81.80;;;;;;5006393;28;19924;-86
2022/01/03 02:43:25;;;;;;;;;;;10.60;81.20;;;;;;5016362;28;19996;-86
2022/01/03 02:45:51;;;;;;;;;;;10.60;81.60;;;;;;5011386;28;19967;-85
2022/01/03 02:48:18;;;;;;;;;;;10.60;81.40;;;;;;5049190;28;19949;-86
2022/01/03 02:50:44;;;;;;;;;;;10.60;81.80;;;;;;5048923;28;19953;-86
2022/01/03 02:53:09;;;;;;;;;;;10.60;82.00;;;;;;4998544;28;19937;-86
2022/01/03 02:55:35;;;;;;;;;;;10.50;82.20;;;;;;4996601;28;19920;-87
2022/01/03 02:58:07;;;;;;;;;;;10.50;82.10;;;;;;5012758;28;19917;-87
2022/01/03 03:00:48;;;;;;;;;;;10.50;81.80;;;;;;4996822;28;19917;-86
2022/01/03 03:03:17;;;;;;;;;;;10.50;81.90;;;;;;4996464;28;19910;-87
2022/01/03 03:05:43;;;;;;;;;;;10.60;81.90;;;;;;5002113;28;19917;-85
2022/01/03 03:08:09;;;;;;;;;;;10.50;81.70;;;;;;5012738;28;19977;-87
2022/01/03 03:10:35;;;;;;;;;;;10.40;82.10;;;;;;5013431;28;19917;-86
2022/01/03 03:13:00;;;;;;;;;;;10.50;81.80;;;;;;5002033;28;19914;-87
2022/01/03 03:15:26;;;;;;;;;;;10.50;81.60;;;;;;5011024;28;20378;-86
2022/01/03 03:17:51;;;;;;;;;;;10.50;81.70;;;;;;5015319;28;19971;-86
2022/01/03 03:20:17;;;;;;;;;;;10.50;81.50;;;;;;5011442;28;19932;-85
2022/01/03 03:22:43;;;;;;;;;;;10.50;81.20;;;;;;4997083;28;19910;-86
2022/01/03 03:25:10;;;;;;;;;;;10.50;81.10;;;;;;5004461;28;19923;-86
2022/01/03 03:27:43;;;;;;;;;;;10.50;81.40;;;;;;5002422;28;19917;-85
2022/01/03 03:30:10;;;;;;;;;;;10.50;81.40;;;;;;4995709;28;19910;-86
2022/01/03 03:32:35;;;;;;;;;;;10.50;81.30;;;;;;5015075;28;19910;-86
2022/01/03 03:35:00;;;;;;;;;;;10.40;81.50;;;;;;5014901;28;20105;-87
2022/01/03 03:37:26;;;;;;;;;;;10.50;81.20;;;;;;5010717;28;19936;-85
2022/01/03 03:39:51;;;;;;;;;;;10.40;80.70;;;;;;4996903;28;19991;-86
2022/01/03 03:42:17;;;;;;;;;;;10.30;81.50;;;;;;5013697;28;19913;-86
2022/01/03 03:44:42;;;;;;;;;;;10.30;81.30;;;;;;5013670;28;19917;-86
2022/01/03 03:47:08;;;;;;;;;;;10.30;81.50;;;;;;5010574;28;19913;-86
2022/01/03 03:49:34;;;;;;;;;;;10.30;81.50;;;;;;5012451;28;19964;-85
2022/01/03 03:52:01;;;;;;;;;;;10.30;81.70;;;;;;5013142;28;19914;-86
2022/01/03 03:54:28;;;;;;;;;;;10.30;81.30;;;;;;5012008;28;19976;-86
2022/01/03 03:56:53;;;;;;;;;;;10.40;80.80;;;;;;5001778;28;20285;-86
2022/01/03 03:59:19;;;;;;;;;;;10.40;80.80;;;;;;5009914;28;20027;-86
2022/01/03 04:01:44;;;;;;;;;;;10.50;80.90;;;;;;5012528;28;19909;-86
2022/01/03 04:04:09;;;;;;;;;;;10.40;81.10;;;;;;5012136;28;20017;-86
2022/01/03 04:06:35;;;;;;;;;;;10.40;81.00;;;;;;5012787;28;19909;-87
2022/01/03 04:09:00;;;;;;;;;;;10.50;80.60;;;;;;5009993;28;20315;-86
2022/01/03 04:11:26;;;;;;;;;;;10.50;80.70;;;;;;5000088;28;19933;-86
2022/01/03 04:13:51;;;;;;;;;;;10.50;80.30;;;;;;5013895;28;20273;-86
2022/01/03 04:16:17;;;;;;;;;;;10.50;80.40;;;;;;5014031;28;19924;-87
2022/01/03 04:18:42;;;;;;;;;;;10.40;80.90;;;;;;5013205;28;20338;-87
2022/01/03 04:21:08;;;;;;;;;;;10.40;80.60;;;;;;5015794;28;19917;-86
2022/01/03 04:23:34;;;;;;;;;;;10.40;80.70;;;;;;5012758;28;20009;-87
2022/01/03 04:25:59;;;;;;;;;;;10.40;80.70;;;;;;5013961;28;19914;-87
2022/01/03 04:28:25;;;;;;;;;;;10.40;80.40;;;;;;5004819;28;19910;-86
2022/01/03 04:30:51;;;;;;;;;;;10.50;80.40;;;;;;4995276;28;19914;-87
2022/01/03 04:33:17;;;;;;;;;;;10.40;80.30;;;;;;5015849;28;19913;-86
2022/01/03 04:35:43;;;;;;;;;;;10.40;80.40;;;;;;5015301;28;19913;-85
2022/01/03 04:38:08;;;;;;;;;;;10.40;80.10;;;;;;5014865;28;20392;-87
2022/01/03 04:40:34;;;;;;;;;;;10.40;80.40;;;;;;5015720;28;19909;-84
2022/01/03 04:42:59;;;;;;;;;;;10.40;80.60;;;;;;5016946;28;19964;-86
2022/01/03 04:45:25;;;;;;;;;;;10.30;81.20;;;;;;5015231;28;20012;-87
2022/01/03 04:47:50;;;;;;;;;;;10.40;81.10;;;;;;5014101;28;19916;-86
2022/01/03 04:50:16;;;;;;;;;;;10.40;80.60;;;;;;5014804;28;19971;-87
2022/01/03 04:52:41;;;;;;;;;;;10.30;80.60;;;;;;5021410;28;19924;-87
2022/01/03 04:55:07;;;;;;;;;;;10.30;80.80;;;;;;5026683;28;19921;-85
2022/01/03 04:57:32;;;;;;;;;;;10.30;81.00;;;;;;5032426;28;19898;-86
2022/01/03 04:59:58;;;;;;;;;;;10.30;80.70;;;;;;5063275;28;19910;-84
2022/01/03 05:02:23;;;;;;;;;;;10.30;80.70;;;;;;5055847;28;19909;-86
2022/01/03 05:04:49;;;;;;;;;;;10.30;80.90;;;;;;5015417;28;19914;-86
2022/01/03 05:07:14;;;;;;;;;;;10.30;80.80;;;;;;5013169;28;19913;-86
2022/01/03 05:09:40;;;;;;;;;;;10.30;81.10;;;;;;5014850;28;19913;-86
2022/01/03 05:12:06;;;;;;;;;;;10.20;81.20;;;;;;5013008;28;20420;-87
2022/01/03 05:14:31;;;;;;;;;;;10.30;81.10;;;;;;5015752;28;19925;-85
2022/01/03 05:16:57;;;;;;;;;;;10.20;81.40;;;;;;5013224;28;19917;-87
2022/01/03 05:19:26;;;;;;;;;;;10.20;81.40;;;;;;5012077;28;19964;-87
2022/01/03 05:21:52;;;;;;;;;;;10.20;81.40;;;;;;5014961;28;19949;-85
2022/01/03 05:24:18;;;;;;;;;;;10.10;81.50;;;;;;5017422;28;19916;-85
2022/01/03 05:26:43;;;;;;;;;;;10.10;81.40;;;;;;5001677;28;19910;-85
2022/01/03 05:29:09;;;;;;;;;;;10.10;81.50;;;;;;5000029;28;20445;-87
2022/01/03 05:31:34;;;;;;;;;;;10.00;81.90;;;;;;5014552;28;19909;-87
2022/01/03 05:34:03;;;;;;;;;;;10.00;81.90;;;;;;5008414;28;19910;-87
2022/01/03 05:36:28;;;;;;;;;;;10.00;82.10;;;;;;5012854;28;19917;-86
2022/01/03 05:38:54;;;;;;;;;;;10.00;81.70;;;;;;5016686;28;20175;-85
2022/01/03 05:41:19;;;;;;;;;;;10.20;81.50;;;;;;5013506;28;19972;-87
2022/01/03 05:43:45;;;;;;;;;;;10.20;81.50;;;;;;4996290;28;19972;-86
2022/01/03 05:46:11;;;;;;;;;;;10.10;81.80;;;;;;4995456;28;19910;-86
2022/01/03 05:48:37;;;;;;;;;;;10.10;81.70;;;;;;4996731;28;19913;-87
2022/01/03 05:51:03;;;;;;;;;;;10.20;81.70;;;;;;5007963;28;20275;-87
2022/01/03 05:53:30;;;;;;;;;;;10.20;81.20;;;;;;5011348;28;19921;-87
2022/01/03 05:55:56;;;;;;;;;;;10.20;81.10;;;;;;5012838;28;19958;-86
2022/01/03 05:58:21;;;;;;;;;;;10.20;81.10;;;;;;4999598;28;19918;-87
2022/01/03 06:00:47;;;;;;;;;;;10.20;80.90;;;;;;4993857;28;20013;-86
2022/01/03 06:03:14;;;;;;;;;;;10.20;80.70;;;;;;4993209;28;19917;-86
2022/01/03 06:06:04;;;;;;;;;;;10.20;80.70;;;;;;5012465;28;19932;-86
2022/01/03 06:08:28;;;;;;;;;;;10.20;80.70;;;;;;5018076;28;19909;-86
2022/01/03 06:10:53;;;;;;;;;;;10.20;80.90;;;;;;5014868;28;20429;-86
2022/01/03 06:13:19;;;;;;;;;;;10.20;81.10;;;;;;4997556;28;20060;-87
2022/01/03 06:15:44;;;;;;;;;;;10.20;80.90;;;;;;5006249;28;19914;-87
2022/01/03 06:18:14;;;;;;;;;;;10.20;80.60;;;;;;5014426;28;19913;-86
2022/01/03 06:20:41;;;;;;;;;;;10.20;80.70;;;;;;5015947;28;19914;-86
2022/01/03 06:23:11;;;;;;;;;;;10.20;80.80;;;;;;5017069;28;19948;-86
2022/01/03 06:25:37;;;;;;;;;;;10.20;80.40;;;;;;5013789;28;19913;-87
2022/01/03 06:28:07;;;;;;;;;;;10.20;80.70;;;;;;5009369;28;19909;-86
2022/01/03 06:30:36;;;;;;;;;;;10.20;80.80;;;;;;5012769;28;19920;-88
2022/01/03 06:33:02;;;;;;;;;;;10.10;80.80;;;;;;5014997;28;19916;-83
2022/01/03 06:35:28;;;;;;;;;;;10.10;80.70;;;;;;5014028;28;20003;-84
2022/01/03 06:37:53;;;;;;;;;;;10.20;80.90;;;;;;5014685;28;20234;-85
2022/01/03 06:40:19;;;;;;;;;;;10.20;80.80;;;;;;5014161;28;20366;-84
2022/01/03 06:42:44;;;;;;;;;;;10.20;81.00;;;;;;5030222;28;19909;-85
2022/01/03 06:45:10;;;;;;;;;;;10.20;80.60;;;;;;5013594;28;19914;-84
2022/01/03 06:47:35;;;;;;;;;;;10.20;80.90;;;;;;5012849;28;20083;-85
2022/01/03 06:50:01;;;;;;;;;;;10.20;80.70;;;;;;5012618;28;19909;-86
2022/01/03 06:52:27;;;;;;;;;;;10.20;80.80;;;;;;5015796;28;20013;-85
2022/01/03 06:54:52;;;;;;;;;;;10.20;80.90;;;;;;5017528;28;20367;-86
2022/01/03 06:57:18;;;;;;;;;;;10.20;81.10;;;;;;5013172;28;19925;-87
2022/01/03 06:59:43;;;;;;;;;;;10.20;80.90;;;;;;5013748;28;19961;-87
2022/01/03 07:02:09;;;;;;;;;;;10.20;81.20;;;;;;5014952;28;20017;-86
2022/01/03 07:04:34;;;;;;;;;;;10.20;81.10;;;;;;5016664;28;20363;-87
2022/01/03 07:07:00;;;;;;;;;;;10.30;81.00;;;;;;5005310;28;19922;-87
2022/01/03 07:09:25;;;;;;;;;;;10.20;80.70;;;;;;4994071;28;20509;-87
2022/01/03 07:11:51;;;;;;;;;;;10.30;80.70;;;;;;5012781;28;19948;-87
2022/01/03 07:19:35;;;;;;;;;;;10.30;81.20;;;;;;5018593;28;19920;-86
2022/01/03 07:22:04;;;;;;;;;;;10.30;81.00;;;;;;5007484;28;19914;-86
2022/01/03 07:24:30;;;;;;;;;;;10.30;81.30;;;;;;4995327;28;19918;-86
2022/01/03 07:26:56;;;;;;;;;;;10.30;81.00;;;;;;5001495;28;19921;-87
2022/01/03 07:29:21;;;;;;;;;;;10.30;80.90;;;;;;5026831;28;19914;-87
2022/01/03 07:31:46;;;;;;;;;;;10.30;80.90;;;;;;5013481;28;19940;-87
2022/01/03 07:34:12;;;;;;;;;;;10.40;80.60;;;;;;5014357;28;20043;-87
2022/01/03 07:36:38;;;;;;;;;;;10.30;80.80;;;;;;5013152;28;20013;-86
2022/01/03 07:39:03;;;;;;;;;;;10.30;81.00;;;;;;5015242;28;19916;-86
2022/01/03 07:41:31;;;;;;;;;;;10.30;81.10;;;;;;5014128;28;19910;-86
2022/01/03 07:43:56;;;;;;;;;;;10.40;80.70;;;;;;5015638;28;20341;-86
2022/01/03 07:46:22;;;;;;;;;;;10.30;81.20;;;;;;5015300;28;19913;-87
2022/01/03 07:48:47;;;;;;;;;;;10.30;81.10;;;;;;5013240;28;19940;-86
2022/01/03 07:51:12;;;;;;;;;;;10.30;81.10;;;;;;5014322;28;19997;-86
2022/01/03 07:53:38;;;;;;;;;;;10.30;81.20;;;;;;5011927;28;19913;-88
2022/01/03 07:56:06;;;;;;;;;;;10.30;81.30;;;;;;5014329;28;19913;-86
2022/01/03 07:58:32;;;;;;;;;;;10.40;81.10;;;;;;5009383;28;19920;-86
2022/01/03 08:00:58;;;;;;;;;;;10.40;81.10;;;;;;5010072;28;19910;-87
2022/01/03 08:03:23;;;;;;;;;;;10.40;81.10;;;;;;5010497;28;19909;-86
2022/01/03 08:05:49;;;;;;;;;;;10.30;80.70;;;;;;5009516;28;19920;-86
2022/01/03 08:08:14;;;;;;;;;;;10.40;81.10;;;;;;5012560;28;19909;-86
2022/01/03 08:10:41;;;;;;;;;;;10.30;80.80;;;;;;5011700;28;19973;-86
2022/01/03 08:13:07;;;;;;;;;;;10.50;80.60;;;;;;5009563;28;19914;-87
2022/01/03 08:15:32;;;;;;;;;;;10.50;80.70;;;;;;5003571;28;19940;-87
2022/01/03 08:17:58;;;;;;;;;;;10.60;79.90;;;;;;5011125;28;20399;-87
2022/01/03 08:20:25;;;;;;;;;;;10.60;80.10;;;;;;5009011;28;19909;-85
2022/01/03 08:22:51;;;;;;;;;;;10.60;79.80;;;;;;5011093;28;19925;-87
2022/01/03 08:25:16;;;;;;;;;;;10.60;79.90;;;;;;5013847;28;19909;-87
2022/01/03 08:27:42;;;;;;;;;;;10.70;79.90;;;;;;5010972;28;19932;-86
2022/01/03 08:30:07;;;;;;;;;;;10.70;80.40;;;;;;5013982;28;19916;-86
2022/01/03 08:32:33;;;;;;;;;;;10.60;81.10;;;;;;5010767;28;19913;-87
2022/01/03 08:34:58;;;;;;;;;;;10.60;81.50;;;;;;5012949;28;20282;-85
2022/01/03 08:37:24;;;;;;;;;;;10.40;82.80;;;;;;5013623;28;19997;-87
2022/01/03 08:39:50;;;;;;;;;;;10.40;83.40;;;;;;5013129;28;19936;-84
2022/01/03 08:42:15;;;;;;;;;;;10.30;83.90;;;;;;5013426;28;19917;-86
2022/01/03 08:44:40;;;;;;;;;;;10.30;84.10;;;;;;5013613;28;20405;-86
2022/01/03 08:47:06;;;;;;;;;;;10.30;84.10;;;;;;5012963;28;20012;-85
2022/01/03 08:49:32;;;;;;;;;;;10.30;83.90;;;;;;5013749;28;19910;-86
2022/01/03 08:51:57;;;;;;;;;;;10.30;84.20;;;;;;5013040;28;20362;-84
2022/01/03 08:54:23;;;;;;;;;;;10.20;84.40;;;;;;5028350;28;20151;-84
2022/01/03 08:56:48;;;;;;;;;;;10.30;84.20;;;;;;5030089;28;19924;-83
2022/01/03 08:59:14;;;;;;;;;;;10.40;83.60;;;;;;5012609;28;20371;-84
2022/01/03 09:01:39;;;;;;;;;;;10.30;83.40;;;;;;4996719;28;19960;-84
2022/01/03 09:04:04;;;;;;;;;;;10.30;83.90;;;;;;4996363;28;19965;-83
2022/01/03 09:06:30;;;;;;;;;;;10.40;83.20;;;;;;4997225;28;19921;-83
2022/01/03 09:08:56;;;;;;;;;;;10.40;82.90;;;;;;5008668;28;20270;-83
2022/01/03 09:11:21;;;;;;;;;;;10.30;83.40;;;;;;5018259;28;20548;-82
2022/01/03 09:13:47;;;;;;;;;;;10.40;82.80;;;;;;5030467;28;19914;-82
2022/01/03 09:16:12;;;;;;;;;;;10.30;83.50;;;;;;5021359;28;20011;-84
2022/01/03 09:18:39;;;;;;;;;;;10.40;83.80;;;;;;5002479;28;20394;-84
2022/01/03 09:21:05;;;;;;;;;;;10.40;83.50;;;;;;5025651;28;19921;-83
2022/01/03 09:23:35;;;;;;;;;;;10.50;83.30;;;;;;5009872;28;19917;-84
2022/01/03 09:28:56;;;;;;;;;;;10.50;83.20;;;;;;4995575;28;20351;-84
2022/01/03 09:31:24;;;;;;;;;;;10.60;82.80;;;;;;5010687;28;19983;-83
2022/01/03 09:33:50;;;;;;;;;;;10.60;82.40;;;;;;5027908;28;19914;-83
2022/01/03 09:36:16;;;;;;;;;;;10.60;82.40;;;;;;5014701;28;19921;-81
2022/01/03 09:38:41;;;;;;;;;;;10.70;82.40;;;;;;5014881;28;19909;-80
2022/01/03 09:41:07;;;;;;;;;;;10.70;82.50;;;;;;5013704;28;19918;-81
2022/01/03 09:43:37;;;;;;;;;;;10.70;81.90;;;;;;5013876;28;19909;-81
2022/01/03 09:46:03;;;;;;;;;;;10.60;82.10;;;;;;5002415;28;19961;-82
2022/01/03 09:48:29;;;;;;;;;;;10.60;82.10;;;;;;5013233;28;19940;-84
2022/01/03 09:50:55;;;;;;;;;;;10.50;82.30;;;;;;5009686;28;19914;-82
2022/01/03 09:53:22;;;;;;;;;;;10.50;82.30;;;;;;5007927;28;19918;-82
2022/01/03 09:55:48;;;;;;;;;;;10.60;81.80;;;;;;4997528;28;19969;-82
2022/01/03 09:58:15;;;;;;;;;;;10.60;81.90;;;;;;5007991;28;19913;-80
2022/01/03 10:00:40;;;;;;;;;;;10.60;81.90;;;;;;5013606;28;19918;-82
2022/01/03 10:03:06;;;;;;;;;;;10.80;81.90;;;;;;5013254;28;19913;-81
2022/01/03 10:05:31;;;;;;;;;;;10.80;81.70;;;;;;5013224;28;19917;-81
2022/01/03 10:07:57;;;;;;;;;;;10.90;80.70;;;;;;4995521;28;20013;-82
2022/01/03 10:10:23;;;;;;;;;;;11.00;80.70;;;;;;4997328;28;20024;-81
2022/01/03 10:12:48;;;;;;;;;;;11.00;80.70;;;;;;4996758;28;19910;-81
2022/01/03 10:15:14;;;;;;;;;;;10.90;80.70;;;;;;5009090;28;20538;-81
2022/01/03 10:17:41;;;;;;;;;;;10.80;80.40;;;;;;5010327;28;19910;-81
2022/01/03 10:20:10;;;;;;;;;;;10.90;80.60;;;;;;5010034;28;19909;-81
2022/01/03 10:22:36;;;;;;;;;;;11.00;80.00;;;;;;5009554;28;19914;-81
2022/01/03 10:25:09;;;;;;;;;;;11.00;80.10;;;;;;4998630;28;19968;-81
2022/01/03 10:27:54;;;;;;;;;;;11.10;79.90;;;;;;5014689;28;19936;-82
2022/01/03 10:30:33;;;;;;;;;;;11.30;79.80;;;;;;5014797;28;19910;-81
2022/01/03 10:32:59;;;;;;;;;;;11.30;78.80;;;;;;5011648;28;19971;-81
2022/01/03 10:35:24;;;;;;;;;;;11.50;78.40;;;;;;5000300;28;19914;-81
2022/01/03 10:37:50;;;;;;;;;;;11.40;78.30;;;;;;5008590;28;19944;-80
2022/01/03 10:40:17;;;;;;;;;;;11.40;78.30;;;;;;5018011;28;19933;-80
2022/01/03 10:42:43;;;;;;;;;;;11.40;78.20;;;;;;5008098;28;19910;-82
2022/01/03 10:45:08;;;;;;;;;;;11.40;78.50;;;;;;5009063;28;19909;-82
2022/01/03 10:47:34;;;;;;;;;;;11.30;78.50;;;;;;5024646;28;19905;-82
2022/01/03 10:50:12;;;;;;;;;;;11.30;78.30;;;;;;5029508;28;19975;-83
2022/01/03 10:52:40;;;;;;;;;;;11.40;78.10;;;;;;5025898;28;19918;-82
2022/01/03 10:55:30;;;;;;;;;;;11.30;77.90;;;;;;5021284;28;19941;-83
2022/01/03 10:57:57;;;;;;;;;;;11.30;77.40;;;;;;5014480;28;19913;-82
2022/01/03 11:00:30;;;;;;;;;;;11.40;77.40;;;;;;5012055;28;19933;-83
2022/01/03 11:06:14;;;;;;;;;;;11.60;76.60;;;;;;4999964;28;19914;-83
2022/01/03 11:11:39;;;;;;;;;;;11.60;75.90;;;;;;4993349;28;20111;-82
2022/01/03 11:14:06;;;;;;;;;;;11.60;75.70;;;;;;5015612;28;19918;-83
2022/01/03 11:16:35;;;;;;;;;;;11.60;75.80;;;;;;5017488;28;19920;-83
2022/01/03 11:19:01;;;;;;;;;;;11.60;75.70;;;;;;5012615;28;19913;-83
2022/01/03 11:21:28;;;;;;;;;;;11.60;76.10;;;;;;5012817;28;19921;-83
2022/01/03 11:24:02;;;;;;;;;;;11.60;76.00;;;;;;5011090;28;19909;-84
2022/01/03 11:26:30;;;;;;;;;;;11.50;75.70;;;;;;5007787;28;19917;-83
2022/01/03 11:28:56;;;;;;;;;;;11.60;76.10;;;;;;5013181;28;19914;-82
2022/01/03 11:31:22;;;;;;;;;;;11.60;76.20;;;;;;5013711;28;19925;-83
2022/01/03 11:33:48;;;;;;;;;;;11.60;75.60;;;;;;5013465;28;19910;-83
2022/01/03 11:36:16;;;;;;;;;;;11.60;75.90;;;;;;5011421;28;19913;-83
2022/01/03 11:38:41;;;;;;;;;;;11.60;75.20;;;;;;5012078;28;19956;-83
2022/01/03 11:41:09;;;;;;;;;;;11.50;76.40;;;;;;5013681;28;20160;-83
2022/01/03 11:43:35;;;;;;;;;;;11.50;76.70;;;;;;5005026;28;19913;-83
2022/01/03 11:46:01;;;;;;;;;;;11.60;76.40;;;;;;4992056;28;19913;-82
2022/01/03 11:48:28;;;;;;;;;;;11.60;76.50;;;;;;4991869;28;19910;-83
2022/01/03 11:50:54;;;;;;;;;;;11.60;75.90;;;;;;5001482;28;19976;-82
2022/01/03 11:53:20;;;;;;;;;;;11.60;75.90;;;;;;5012011;28;19973;-83
2022/01/03 11:55:53;;;;;;;;;;;11.60;76.40;;;;;;5008927;28;20013;-82
2022/01/03 11:58:44;;;;;;;;;;;11.60;76.40;;;;;;4993036;28;19913;-82
2022/01/03 12:03:55;;;;;;;;;;;11.60;76.30;;;;;;5011480;28;19967;-82
2022/01/03 12:06:28;;;;;;;;;;;11.60;76.30;;;;;;5013529;28;19914;-83
2022/01/03 12:08:58;;;;;;;;;;;11.60;76.40;;;;;;5008079;28;20264;-84
2022/01/03 12:11:27;;;;;;;;;;;11.60;76.20;;;;;;4995449;28;19914;-83
2022/01/03 12:13:54;;;;;;;;;;;11.60;75.80;;;;;;5014092;28;19917;-83
2022/01/03 12:16:37;;;;;;;;;;;11.60;76.20;;;;;;4995010;28;20386;-83
2022/01/03 12:19:02;;;;;;;;;;;11.60;75.90;;;;;;4994124;28;20692;-83
2022/01/03 12:21:47;;;;;;;;;;;11.70;75.40;;;;;;5012017;28;19967;-83
2022/01/03 12:24:31;;;;;;;;;;;11.80;75.80;;;;;;5012796;28;19913;-82
2022/01/03 12:27:12;;;;;;;;;;;11.80;75.60;;;;;;5010016;28;19948;-83
2022/01/03 12:29:52;;;;;;;;;;;11.90;75.50;;;;;;5009984;28;20417;-82
2022/01/03 12:32:18;;;;;;;;;;;11.80;75.40;;;;;;5009321;28;19917;-83
2022/01/03 12:34:43;;;;;;;;;;;11.70;75.40;;;;;;5010481;28;19962;-83
2022/01/03 12:37:16;;;;;;;;;;;11.70;75.90;;;;;;5008687;28;19957;-82
2022/01/03 12:40:01;;;;;;;;;;;11.80;75.80;;;;;;5010251;28;19987;-82
2022/01/03 12:42:45;;;;;;;;;;;11.90;75.80;;;;;;5010151;28;20354;-83
2022/01/03 12:45:10;;;;;;;;;;;11.80;75.10;;;;;;5010234;28;19917;-83
2022/01/03 12:47:36;;;;;;;;;;;11.70;75.40;;;;;;5009564;28;19910;-83
2022/01/03 12:50:21;;;;;;;;;;;11.80;75.20;;;;;;5009582;28;19909;-83
2022/01/03 12:52:46;;;;;;;;;;;11.70;75.60;;;;;;5010179;28;20047;-83
2022/01/03 12:55:32;;;;;;;;;;;11.60;75.40;;;;;;5009398;28;20420;-83
2022/01/03 12:57:57;;;;;;;;;;;11.60;75.30;;;;;;5009581;28;19965;-83
2022/01/03 13:00:38;;;;;;;;;;;11.60;75.60;;;;;;5010091;28;19914;-82
2022/01/03 13:03:20;;;;;;;;;;;11.60;76.00;;;;;;5011332;28;19913;-82
2022/01/03 13:06:05;;;;;;;;;;;11.50;76.20;;;;;;5010808;28;20315;-82
2022/01/03 13:08:31;;;;;;;;;;;11.50;76.00;;;;;;5010721;28;19910;-83
2022/01/03 13:11:08;;;;;;;;;;;11.50;77.80;;;;;;4995519;28;19925;-83
2022/01/03 13:13:34;;;;;;;;;;;11.40;77.60;;;;;;4998489;28;20278;-83
2022/01/03 13:16:15;;;;;;;;;;;11.20;79.30;;;;;;5010163;28;19980;-82
2022/01/03 13:18:43;;;;;;;;;;;11.00;80.20;;;;;;5010667;28;19925;-83
2022/01/03 13:21:12;;;;;;;;;;;10.80;81.10;;;;;;5006133;28;20020;-82
2022/01/03 13:23:37;;;;;;;;;;;10.70;82.00;;;;;;4992371;28;19921;-83
2022/01/03 13:26:03;;;;;;;;;;;10.60;82.70;;;;;;5011338;28;19910;-82
2022/01/03 13:28:29;;;;;;;;;;;10.50;84.10;;;;;;5012398;28;20384;-84
2022/01/03 13:31:03;;;;;;;;;;;10.50;84.50;;;;;;5010246;28;19909;-83
2022/01/03 13:33:29;;;;;;;;;;;10.50;84.60;;;;;;5011048;28;19993;-83
2022/01/03 13:35:59;;;;;;;;;;;10.50;84.90;;;;;;5012111;28;20100;-84
2022/01/03 13:38:24;;;;;;;;;;;10.50;84.60;;;;;;5007453;28;19924;-83
2022/01/03 13:40:50;;;;;;;;;;;10.40;84.70;;;;;;5000799;28;19917;-83
2022/01/03 13:43:17;;;;;;;;;;;10.40;85.10;;;;;;5002156;28;19917;-83
2022/01/03 13:51:00;;;;;;;;;;;10.30;85.20;;;;;;5012266;28;19966;-83
2022/01/03 13:53:26;;;;;;;;;;;10.30;85.30;;;;;;5010896;28;19917;-83
2022/01/03 13:55:52;;;;;;;;;;;10.30;85.60;;;;;;5012652;28;19919;-84
2022/01/03 13:58:18;;;;;;;;;;;10.40;84.90;;;;;;5013155;28;19914;-83
2022/01/03 14:00:46;;;;;;;;;;;10.40;84.60;;;;;;5015951;28;19956;-83
2022/01/03 14:03:15;;;;;;;;;;;10.30;84.40;;;;;;5016107;28;20345;-83
2022/01/03 14:05:44;;;;;;;;;;;10.30;84.70;;;;;;5014812;28;19910;-83
2022/01/03 14:08:14;;;;;;;;;;;10.20;84.70;;;;;;5015292;28;19909;-84
2022/01/03 14:10:43;;;;;;;;;;;10.20;84.90;;;;;;5016423;28;19909;-83
2022/01/03 14:13:10;;;;;;;;;;;10.20;84.20;;;;;;5001392;28;20382;-82
2022/01/03 14:15:36;;;;;;;;;;;10.10;84.10;;;;;;5001342;28;19972;-84
2022/01/03 14:18:02;;;;;;;;;;;10.20;83.90;;;;;;5002697;28;19913;-83
2022/01/03 14:20:27;;;;;;;;;;;10.10;84.10;;;;;;5005685;28;19918;-84
2022/01/03 14:22:53;;;;;;;;;;;10.20;83.90;;;;;;5007108;28;19945;-84
2022/01/03 14:25:23;;;;;;;;;;;10.20;83.80;;;;;;5017065;28;19913;-84
2022/01/03 14:27:58;;;;;;;;;;;10.30;84.40;;;;;;5016849;28;19951;-84
2022/01/03 14:30:29;;;;;;;;;;;10.20;85.20;;;;;;5013784;28;19952;-84
2022/01/03 14:32:57;;;;;;;;;;;10.20;85.00;;;;;;5011638;28;19941;-84
2022/01/03 14:35:32;;;;;;;;;;;10.20;84.90;;;;;;5008918;28;19947;-83
2022/01/03 14:38:00;;;;;;;;;;;10.10;85.80;;;;;;4997652;28;19914;-82
2022/01/03 14:40:36;;;;;;;;;;;10.00;85.90;;;;;;5004158;28;19928;-84
2022/01/03 14:43:01;;;;;;;;;;;10.00;86.50;;;;;;5009801;28;20060;-82